createdAt,value
2023-02-21T00:00:56.251Z,99.90
2023-02-21T00:03:41.937Z,99.90
2023-02-21T00:06:28.140Z,99.90
2023-02-21T00:09:13.951Z,99.90
2023-02-21T00:12:03.230Z,99.90
2023-02-21T00:14:48.777Z,99.90
2023-02-21T00:17:35.041Z,99.90
2023-02-21T00:20:20.663Z,99.90
2023-02-21T00:23:05.924Z,99.90
2023-02-21T00:25:51.429Z,99.90
2023-02-21T00:28:36.651Z,99.90
2023-02-21T00:31:22.046Z,99.90
2023-02-21T00:34:07.434Z,99.90
2023-02-21T00:36:53.119Z,99.90
2023-02-21T00:39:38.696Z,99.90
2023-02-21T00:42:24.173Z,99.90
2023-02-21T00:45:09.349Z,99.90
2023-02-21T00:47:54.931Z,99.90
2023-02-21T00:50:40.420Z,99.90
2023-02-21T00:53:25.850Z,99.90
2023-02-21T00:56:11.119Z,99.90
2023-02-21T00:58:56.358Z,99.90
2023-02-21T01:01:42.001Z,99.90
2023-02-21T01:04:27.672Z,99.90
2023-02-21T01:07:13.351Z,99.90
2023-02-21T01:09:58.776Z,99.90
2023-02-21T01:12:44.095Z,99.90
2023-02-21T01:15:29.520Z,99.90
2023-02-21T01:18:14.917Z,99.90
2023-02-21T01:21:00.376Z,99.90
2023-02-21T01:23:45.940Z,99.90
2023-02-21T01:26:31.413Z,99.90
2023-02-21T01:29:17.170Z,99.90
2023-02-21T01:32:02.580Z,99.90
2023-02-21T01:34:48.022Z,99.90
2023-02-21T01:37:33.391Z,99.90
2023-02-21T01:40:18.679Z,99.90
2023-02-21T01:43:04.222Z,99.90
2023-02-21T01:45:55.700Z,99.90
2023-02-21T01:48:44.231Z,99.90
2023-02-21T01:51:33.154Z,99.90
2023-02-21T01:54:19.145Z,99.90
2023-02-21T01:57:04.791Z,99.90
2023-02-21T01:59:51.174Z,99.90
2023-02-21T02:02:49.025Z,99.90
2023-02-21T02:05:35.283Z,99.90
2023-02-21T02:08:20.848Z,99.90
2023-02-21T02:11:15.045Z,99.90
2023-02-21T02:13:49.909Z,99.90
2023-02-21T02:16:37.131Z,99.90
2023-02-21T02:19:31.599Z,99.90
2023-02-21T02:22:20.965Z,99.90
2023-02-21T02:24:56.110Z,99.90
2023-02-21T02:27:44.801Z,99.90
2023-02-21T02:30:39.960Z,99.90
2023-02-21T02:33:46.464Z,99.90
2023-02-21T02:36:26.156Z,99.90
2023-02-21T02:39:08.017Z,99.90
2023-02-21T02:41:47.441Z,99.90
2023-02-21T02:44:31.960Z,99.90
2023-02-21T02:47:01.298Z,99.90
2023-02-21T02:49:31.312Z,99.90
2023-02-21T02:52:04.496Z,99.90
2023-02-21T02:54:31.476Z,99.90
2023-02-21T02:56:59.578Z,99.90
2023-02-21T02:59:30.168Z,99.90
2023-02-21T03:02:09.651Z,99.90
2023-02-21T03:05:15.880Z,99.90
2023-02-21T03:08:10.094Z,99.90
2023-02-21T03:11:09.538Z,99.90
2023-02-21T03:13:45.846Z,99.90
2023-02-21T03:16:39.072Z,99.90
2023-02-21T03:19:17.685Z,99.90
2023-02-21T03:22:02.009Z,99.90
2023-02-21T03:24:29.668Z,99.90
2023-02-21T03:27:00.584Z,99.90
2023-02-21T03:29:27.649Z,99.90
2023-02-21T03:32:21.173Z,99.90
2023-02-21T03:34:48.117Z,99.90
2023-02-21T03:37:34.050Z,99.90
2023-02-21T03:40:01.774Z,99.90
2023-02-21T03:42:28.561Z,99.90
2023-02-21T03:44:55.315Z,99.90
2023-02-21T03:47:22.103Z,99.90
2023-02-21T03:49:48.887Z,99.90
2023-02-21T03:52:15.741Z,99.90
2023-02-21T03:54:42.851Z,99.90
2023-02-21T03:57:10.093Z,99.90
2023-02-21T03:59:36.878Z,99.90
2023-02-21T04:02:03.889Z,99.90
2023-02-21T04:04:31.024Z,99.90
2023-02-21T04:07:00.338Z,99.90
2023-02-21T04:09:27.084Z,99.90
2023-02-21T04:11:54.281Z,99.90
2023-02-21T04:14:21.127Z,99.90
2023-02-21T04:16:48.010Z,99.90
2023-02-21T04:19:14.836Z,99.90
2023-02-21T04:21:41.661Z,99.90
2023-02-21T04:24:08.765Z,99.90
2023-02-21T04:26:35.752Z,99.90
2023-02-21T04:29:03.096Z,99.90
2023-02-21T04:31:30.366Z,99.90
2023-02-21T04:34:10.937Z,99.90
2023-02-21T04:36:39.090Z,99.90
2023-02-21T04:39:06.773Z,99.90
2023-02-21T04:41:33.593Z,99.90
2023-02-21T04:44:00.367Z,99.90
2023-02-21T04:46:27.127Z,99.90
2023-02-21T04:48:54.324Z,99.90
2023-02-21T04:51:23.676Z,99.90
2023-02-21T04:53:51.415Z,99.90
2023-02-21T04:56:20.969Z,99.90
2023-02-21T04:58:47.953Z,99.90
2023-02-21T05:01:16.637Z,99.90
2023-02-21T05:03:43.883Z,99.90
2023-02-21T05:06:11.078Z,99.90
2023-02-21T05:08:37.820Z,99.90
2023-02-21T05:11:04.819Z,99.90
2023-02-21T05:13:31.548Z,99.90
2023-02-21T05:15:58.344Z,99.90
2023-02-21T05:18:28.792Z,99.90
2023-02-21T05:20:56.150Z,99.90
2023-02-21T05:23:33.882Z,99.90
2023-02-21T05:26:05.384Z,99.90
2023-02-21T05:28:32.479Z,99.90
2023-02-21T05:31:01.043Z,99.90
2023-02-21T05:33:28.239Z,99.90
2023-02-21T05:35:55.927Z,99.90
2023-02-21T05:38:24.559Z,99.90
2023-02-21T05:40:51.416Z,99.90
2023-02-21T05:43:18.661Z,99.90
2023-02-21T05:45:45.447Z,99.90
2023-02-21T05:48:12.272Z,99.90
2023-02-21T05:50:39.754Z,99.90
2023-02-21T05:53:09.923Z,99.90
2023-02-21T05:55:37.226Z,99.90
2023-02-21T05:58:04.238Z,99.90
2023-02-21T06:00:31.489Z,99.90
2023-02-21T06:02:58.320Z,99.90
2023-02-21T06:05:25.494Z,99.90
2023-02-21T06:07:52.623Z,99.90
2023-02-21T06:10:20.078Z,99.90
2023-02-21T06:12:47.370Z,99.90
2023-02-21T06:15:14.605Z,99.90
2023-02-21T06:17:42.325Z,99.90
2023-02-21T06:20:14.278Z,99.90
2023-02-21T06:22:41.072Z,99.90
2023-02-21T06:25:08.638Z,99.90
2023-02-21T06:27:35.392Z,99.90
2023-02-21T06:30:03.558Z,99.90
2023-02-21T06:32:30.345Z,99.90
2023-02-21T06:34:57.276Z,99.90
2023-02-21T06:37:24.141Z,99.90
2023-02-21T06:39:50.914Z,99.90
2023-02-21T06:42:18.986Z,99.90
2023-02-21T06:44:47.533Z,99.90
2023-02-21T06:47:14.657Z,99.90
2023-02-21T06:49:41.593Z,99.90
2023-02-21T06:52:09.134Z,99.90
2023-02-21T06:54:36.687Z,99.90
2023-02-21T06:57:03.576Z,99.90
2023-02-21T06:59:30.413Z,99.90
2023-02-21T07:01:57.347Z,99.90
2023-02-21T07:04:25.576Z,99.90
2023-02-21T07:06:53.058Z,99.90
2023-02-21T07:09:19.844Z,99.90
2023-02-21T07:11:47.135Z,99.90
2023-02-21T07:14:14.804Z,99.90
2023-02-21T07:16:41.628Z,99.90
2023-02-21T07:19:08.581Z,99.90
2023-02-21T07:21:36.444Z,99.90
2023-02-21T07:24:03.160Z,99.90
2023-02-21T07:26:29.928Z,99.90
2023-02-21T07:28:56.790Z,99.90
2023-02-21T07:31:23.960Z,99.90
2023-02-21T07:33:50.823Z,99.90
2023-02-21T07:36:17.820Z,99.90
2023-02-21T07:38:44.656Z,99.90
2023-02-21T07:41:11.729Z,99.90
2023-02-21T07:43:39.359Z,99.90
2023-02-21T07:46:11.330Z,99.90
2023-02-21T07:48:38.194Z,99.90
2023-02-21T07:51:07.639Z,99.90
2023-02-21T07:53:34.650Z,99.90
2023-02-21T07:56:01.398Z,99.90
2023-02-21T07:58:28.224Z,99.90
2023-02-21T08:00:55.582Z,99.90
2023-02-21T08:03:22.969Z,99.90
2023-02-21T08:05:52.375Z,99.90
2023-02-21T08:08:19.110Z,99.90
2023-02-21T08:10:45.865Z,99.90
2023-02-21T08:13:12.618Z,99.90
2023-02-21T08:15:39.352Z,99.90
2023-02-21T08:18:06.206Z,99.90
2023-02-21T08:20:33.386Z,99.90
2023-02-21T08:23:00.120Z,99.90
2023-02-21T08:25:26.868Z,99.90
2023-02-21T08:27:55.311Z,99.90
2023-02-21T08:30:23.043Z,99.90
2023-02-21T08:32:51.335Z,99.90
2023-02-21T08:35:19.862Z,99.90
2023-02-21T08:37:50.934Z,99.90
2023-02-21T08:40:21.023Z,99.90
2023-02-21T08:42:52.256Z,99.90
2023-02-21T08:45:20.975Z,99.90
2023-02-21T08:47:48.288Z,99.90
2023-02-21T08:50:16.067Z,99.90
2023-02-21T08:52:42.857Z,99.90
2023-02-21T08:55:09.680Z,99.90
2023-02-21T08:57:36.649Z,99.90
2023-02-21T09:00:11.475Z,99.90
2023-02-21T09:02:41.963Z,99.90
2023-02-21T09:05:15.504Z,99.90
2023-02-21T09:07:42.906Z,99.90
2023-02-21T09:10:11.939Z,99.90
2023-02-21T09:12:39.036Z,99.90
2023-02-21T09:15:06.658Z,99.90
2023-02-21T09:17:34.369Z,99.90
2023-02-21T09:20:05.010Z,99.90
2023-02-21T09:22:31.785Z,99.90
2023-02-21T09:24:59.517Z,99.90
2023-02-21T09:27:36.477Z,99.90
2023-02-21T09:30:08.940Z,99.90
2023-02-21T09:32:36.733Z,99.90
2023-02-21T09:35:04.530Z,99.90
2023-02-21T09:37:32.726Z,99.90
2023-02-21T09:40:00.205Z,99.90
2023-02-21T09:42:31.105Z,99.90
2023-02-21T09:44:58.825Z,99.90
2023-02-21T09:47:33.453Z,99.90
2023-02-21T09:50:06.917Z,99.90
2023-02-21T09:52:40.894Z,99.90
2023-02-21T09:55:31.737Z,99.90
2023-02-21T09:57:58.807Z,99.90
2023-02-21T10:00:46.513Z,99.90
2023-02-21T10:11:30.407Z,99.90
2023-02-21T10:14:21.699Z,99.90
2023-02-21T10:16:58.312Z,99.90
2023-02-21T10:19:49.114Z,99.90
2023-02-21T10:22:31.993Z,99.90
2023-02-21T10:24:59.172Z,99.90
2023-02-21T10:27:30.327Z,99.90
2023-02-21T10:30:10.343Z,99.90
2023-02-21T10:32:38.367Z,99.60
2023-02-21T10:35:05.563Z,99.40
2023-02-21T10:37:44.637Z,99.20
2023-02-21T10:40:30.027Z,97.20
2023-02-21T10:43:04.500Z,96.60
2023-02-21T10:45:49.402Z,96.80
2023-02-21T10:48:38.674Z,95.90
2023-02-21T10:51:17.822Z,96.30
2023-02-21T10:53:47.237Z,95.20
2023-02-21T10:56:19.881Z,94.30
2023-02-21T10:58:52.196Z,94.00
2023-02-21T11:01:30.309Z,92.90
2023-02-21T11:04:06.932Z,93.30
2023-02-21T11:06:40.013Z,92.30
2023-02-21T11:09:31.638Z,92.10
2023-02-21T11:12:19.579Z,92.20
2023-02-21T11:14:52.888Z,90.90
2023-02-21T11:17:28.520Z,91.10
2023-02-21T11:19:56.505Z,89.90
2023-02-21T11:22:26.207Z,90.20
2023-02-21T11:24:59.743Z,88.60
2023-02-21T11:27:28.895Z,89.10
2023-02-21T11:30:02.634Z,88.70
2023-02-21T11:32:37.284Z,88.00
2023-02-21T11:35:25.045Z,86.90
2023-02-21T11:38:04.374Z,86.20
2023-02-21T11:40:42.793Z,84.60
2023-02-21T11:43:35.567Z,84.40
2023-02-21T11:46:36.146Z,85.80
2023-02-21T11:49:48.035Z,85.00
2023-02-21T11:52:36.916Z,86.40
2023-02-21T11:55:05.001Z,86.10
2023-02-21T11:57:46.976Z,83.20
2023-02-21T12:00:47.150Z,81.70
2023-02-21T12:03:45.746Z,82.20
2023-02-21T12:06:12.615Z,80.70
2023-02-21T12:09:09.751Z,80.60
2023-02-21T12:12:04.589Z,81.80
2023-02-21T12:15:08.144Z,80.70
2023-02-21T12:17:45.908Z,81.00
2023-02-21T12:20:24.525Z,80.40
2023-02-21T12:23:07.000Z,80.60
2023-02-21T12:25:45.300Z,81.00
2023-02-21T12:28:29.949Z,78.90
2023-02-21T12:31:13.419Z,80.30
2023-02-21T12:34:03.437Z,80.50
2023-02-21T12:36:55.215Z,79.50
2023-02-21T12:39:30.607Z,79.30
2023-02-21T12:42:35.777Z,80.30
2023-02-21T12:45:05.749Z,78.80
2023-02-21T12:47:45.990Z,77.30
2023-02-21T12:50:21.470Z,77.70
2023-02-21T12:53:04.790Z,77.90
2023-02-21T12:55:40.451Z,77.70
2023-02-21T12:58:30.562Z,76.70
2023-02-21T13:01:00.455Z,75.10
2023-02-21T13:03:30.650Z,76.70
2023-02-21T13:06:18.402Z,77.00
2023-02-21T13:09:07.854Z,76.30
2023-02-21T13:11:52.218Z,77.00
2023-02-21T13:14:24.884Z,76.80
2023-02-21T13:16:53.508Z,76.90
2023-02-21T13:19:22.459Z,77.50
2023-02-21T13:22:45.986Z,76.70
2023-02-21T13:25:12.794Z,75.30
2023-02-21T13:28:23.369Z,75.40
2023-02-21T13:30:59.118Z,74.20
2023-02-21T13:33:46.256Z,76.80
2023-02-21T13:36:33.372Z,74.90
2023-02-21T13:39:32.340Z,75.20
2023-02-21T13:42:08.027Z,75.40
2023-02-21T13:44:44.642Z,74.70
2023-02-21T13:47:22.455Z,76.00
2023-02-21T13:49:53.730Z,75.60
2023-02-21T13:52:23.399Z,75.10
2023-02-21T13:55:15.206Z,75.90
2023-02-21T13:57:57.547Z,75.20
2023-02-21T14:00:24.433Z,75.40
2023-02-21T14:02:57.457Z,75.40
2023-02-21T14:05:25.310Z,76.60
2023-02-21T14:08:01.838Z,75.60
2023-02-21T14:10:38.096Z,75.30
2023-02-21T14:13:27.572Z,76.00
2023-02-21T14:16:19.604Z,75.70
2023-02-21T14:18:51.823Z,76.20
2023-02-21T14:21:35.662Z,74.10
2023-02-21T14:24:10.707Z,76.00
2023-02-21T14:26:37.518Z,75.60
2023-02-21T14:29:07.008Z,74.20
2023-02-21T14:32:09.333Z,75.10
2023-02-21T14:34:48.057Z,74.40
2023-02-21T14:37:36.811Z,75.50
2023-02-21T14:40:47.934Z,75.20
2023-02-21T14:43:36.266Z,78.00
2023-02-21T14:46:27.767Z,75.60
2023-02-21T14:49:03.429Z,76.10
2023-02-21T14:51:42.197Z,75.00
2023-02-21T14:54:44.087Z,74.40
2023-02-21T14:57:19.866Z,77.90
2023-02-21T15:00:02.353Z,77.00
2023-02-21T15:02:41.276Z,76.90
2023-02-21T15:05:35.481Z,75.50
2023-02-21T15:08:17.915Z,76.50
2023-02-21T15:10:47.496Z,76.50
2023-02-21T15:13:25.092Z,76.10
2023-02-21T15:15:56.330Z,76.70
2023-02-21T15:18:30.753Z,77.50
2023-02-21T15:21:14.674Z,77.10
2023-02-21T15:23:44.466Z,78.10
2023-02-21T15:26:18.407Z,76.70
2023-02-21T15:28:46.486Z,79.50
2023-02-21T15:31:14.531Z,78.70
2023-02-21T15:33:43.989Z,78.80
2023-02-21T15:36:20.718Z,79.90
2023-02-21T15:38:50.194Z,83.00
2023-02-21T15:41:33.563Z,81.90
2023-02-21T15:44:16.462Z,79.80
2023-02-21T15:46:54.666Z,81.30
2023-02-21T15:49:30.829Z,78.70
2023-02-21T15:51:57.984Z,78.80
2023-02-21T15:54:28.524Z,80.30
2023-02-21T15:57:17.315Z,80.80
2023-02-21T15:59:44.620Z,81.80
2023-02-21T16:04:50.533Z,84.80
2023-02-21T16:07:37.404Z,85.40
2023-02-21T16:10:08.048Z,86.30
2023-02-21T16:12:45.674Z,86.50
2023-02-21T16:15:18.333Z,86.90
2023-02-21T16:17:46.426Z,86.90
2023-02-21T16:20:24.956Z,88.00
2023-02-21T16:23:14.101Z,89.50
2023-02-21T16:25:56.227Z,90.00
2023-02-21T16:28:22.903Z,90.30
2023-02-21T16:30:50.083Z,90.40
2023-02-21T16:33:16.998Z,91.10
2023-02-21T16:35:44.270Z,92.00
2023-02-21T16:38:14.652Z,92.00
2023-02-21T16:40:41.728Z,92.50
2023-02-21T16:43:15.194Z,92.90
2023-02-21T16:45:42.650Z,93.30
2023-02-21T16:48:21.656Z,93.80
2023-02-21T16:50:49.761Z,94.90
2023-02-21T16:53:18.102Z,95.60
2023-02-21T16:55:45.870Z,95.70
2023-02-21T16:58:26.457Z,96.20
2023-02-21T17:00:55.406Z,96.90
2023-02-21T17:03:22.252Z,98.10
2023-02-21T17:05:51.831Z,98.50
2023-02-21T17:08:18.939Z,99.90
2023-02-21T17:10:45.790Z,99.90
2023-02-21T17:13:12.568Z,99.90
2023-02-21T17:15:39.506Z,99.90
2023-02-21T17:18:06.318Z,99.90
2023-02-21T17:20:33.220Z,99.90
2023-02-21T17:23:00.030Z,99.90
2023-02-21T17:25:27.390Z,99.90
2023-02-21T17:27:54.427Z,99.90
2023-02-21T17:30:24.371Z,99.90
2023-02-21T17:32:51.848Z,99.90
2023-02-21T17:35:20.890Z,99.90
2023-02-21T17:37:49.575Z,99.90
2023-02-21T17:40:19.344Z,99.90
2023-02-21T17:42:46.226Z,99.90
2023-02-21T17:45:16.214Z,99.90
2023-02-21T17:47:42.957Z,99.90
2023-02-21T17:50:09.873Z,99.90
2023-02-21T17:52:36.738Z,99.90
2023-02-21T17:55:07.801Z,99.90
2023-02-21T17:57:38.435Z,99.90
2023-02-21T18:00:14.057Z,99.90
2023-02-21T18:02:40.851Z,99.90
2023-02-21T18:05:08.744Z,99.90
2023-02-21T18:07:35.559Z,99.90
2023-02-21T18:10:04.001Z,99.90
2023-02-21T18:12:33.363Z,99.90
2023-02-21T18:15:00.610Z,99.90
2023-02-21T18:17:27.563Z,99.90
2023-02-21T18:19:54.387Z,99.90
2023-02-21T18:22:21.194Z,99.90
2023-02-21T18:24:47.985Z,99.90
2023-02-21T18:27:15.876Z,99.90
2023-02-21T18:29:42.659Z,99.90
2023-02-21T18:32:09.463Z,99.90
2023-02-21T18:34:36.256Z,99.90
2023-02-21T18:37:03.019Z,99.90
2023-02-21T18:39:29.784Z,99.90
2023-02-21T18:41:56.468Z,99.90
2023-02-21T18:44:23.299Z,99.90
2023-02-21T18:46:54.138Z,99.90
2023-02-21T18:49:24.161Z,99.90
2023-02-21T18:51:51.304Z,99.90
2023-02-21T18:54:18.905Z,99.90
2023-02-21T18:56:50.314Z,99.90
2023-02-21T18:59:19.252Z,99.90
2023-02-21T19:01:50.158Z,99.90
2023-02-21T19:04:16.994Z,99.90
2023-02-21T19:06:44.136Z,99.90
2023-02-21T19:09:11.821Z,99.90
2023-02-21T19:11:38.814Z,99.90
2023-02-21T19:14:05.810Z,99.90
2023-02-21T19:16:33.891Z,99.90
2023-02-21T19:19:03.416Z,99.90
2023-02-21T19:21:30.883Z,99.90
2023-02-21T19:23:58.394Z,99.90
2023-02-21T19:26:29.483Z,99.90
2023-02-21T19:28:56.774Z,99.90
2023-02-21T19:31:23.684Z,99.90
2023-02-21T19:33:50.721Z,99.90
2023-02-21T19:36:17.661Z,99.90
2023-02-21T19:38:44.480Z,99.90
2023-02-21T19:41:11.232Z,99.90
2023-02-21T19:43:38.135Z,99.90
2023-02-21T19:46:05.438Z,99.90
2023-02-21T19:48:32.232Z,99.90
2023-02-21T19:50:59.098Z,99.90
2023-02-21T19:53:25.903Z,99.90
2023-02-21T19:55:52.674Z,99.90
2023-02-21T19:58:19.948Z,99.90
2023-02-21T20:00:47.265Z,99.90
2023-02-21T20:03:14.288Z,99.90
2023-02-21T20:05:41.022Z,99.90
2023-02-21T20:08:10.728Z,99.90
2023-02-21T20:10:37.532Z,99.90
2023-02-21T20:13:06.411Z,99.90
2023-02-21T20:15:35.174Z,99.90
2023-02-21T20:18:02.360Z,99.90
2023-02-21T20:20:29.440Z,99.90
2023-02-21T20:22:57.968Z,99.90
2023-02-21T20:25:25.332Z,99.90
2023-02-21T20:27:52.316Z,99.90
2023-02-21T20:30:19.206Z,99.90
2023-02-21T20:32:46.240Z,99.90
2023-02-21T20:35:13.390Z,99.90
2023-02-21T20:37:40.233Z,99.90
2023-02-21T20:40:10.292Z,99.90
2023-02-21T20:42:37.536Z,99.90
2023-02-21T20:45:04.647Z,99.90
2023-02-21T20:47:31.462Z,99.90
2023-02-21T20:49:58.298Z,99.90
2023-02-21T20:52:25.142Z,99.90
2023-02-21T20:54:51.964Z,99.90
2023-02-21T20:57:18.750Z,99.90
2023-02-21T20:59:46.304Z,99.90
2023-02-21T21:02:13.673Z,99.90
2023-02-21T21:04:43.228Z,99.90
2023-02-21T21:07:19.995Z,99.90
2023-02-21T21:09:47.593Z,99.90
2023-02-21T21:12:17.269Z,99.90
2023-02-21T21:14:46.440Z,99.90
2023-02-21T21:17:16.556Z,99.90
2023-02-21T21:19:46.474Z,99.90
2023-02-21T21:22:16.483Z,99.90
2023-02-21T21:24:43.284Z,99.90
2023-02-21T21:27:10.354Z,99.90
2023-02-21T21:29:39.081Z,99.90
2023-02-21T21:32:06.155Z,99.90
2023-02-21T21:34:33.662Z,99.90
2023-02-21T21:37:03.696Z,99.90
2023-02-21T21:39:31.590Z,99.90
2023-02-21T21:42:05.471Z,99.90
2023-02-21T21:44:33.036Z,99.90
2023-02-21T21:47:02.886Z,99.90
2023-02-21T21:49:32.475Z,99.90
2023-02-21T21:51:59.780Z,99.90
2023-02-21T21:54:27.505Z,99.90
2023-02-21T21:56:55.225Z,99.90
2023-02-21T21:59:26.961Z,99.90
2023-02-21T22:01:57.722Z,99.90
2023-02-21T22:04:28.499Z,99.90
2023-02-21T22:06:56.632Z,99.90
2023-02-21T22:09:25.792Z,99.90
2023-02-21T22:11:53.167Z,99.90
2023-02-21T22:14:25.076Z,99.90
2023-02-21T22:16:53.221Z,99.90
2023-02-21T22:19:22.791Z,99.90
2023-02-21T22:21:49.950Z,99.90
2023-02-21T22:24:20.710Z,99.90
2023-02-21T22:26:48.673Z,99.90
2023-02-21T22:29:17.226Z,99.90
2023-02-21T22:31:46.831Z,99.90
2023-02-21T22:34:23.347Z,99.90
2023-02-21T22:36:55.560Z,99.90
2023-02-21T22:39:24.150Z,99.90
2023-02-21T22:41:51.430Z,99.90
2023-02-21T22:44:18.911Z,99.90
2023-02-21T22:46:47.973Z,99.90
2023-02-21T22:49:16.802Z,99.90
2023-02-21T22:51:44.430Z,99.90
2023-02-21T22:54:14.471Z,99.90
2023-02-21T22:56:50.946Z,99.90
2023-02-21T22:59:19.737Z,99.90
2023-02-21T23:01:46.857Z,99.90
2023-02-21T23:04:16.373Z,99.90
2023-02-21T23:06:44.145Z,99.90
2023-02-21T23:09:12.699Z,99.90
2023-02-21T23:11:47.247Z,99.90
2023-02-21T23:14:14.454Z,99.90
2023-02-21T23:16:42.213Z,99.90
2023-02-21T23:19:09.714Z,99.90
2023-02-21T23:21:48.154Z,99.90
2023-02-21T23:24:16.470Z,99.90
2023-02-21T23:26:46.867Z,99.90
2023-02-21T23:29:16.055Z,99.90
2023-02-21T23:31:42.973Z,99.90
2023-02-21T23:34:11.993Z,99.90
2023-02-21T23:36:41.728Z,99.90
2023-02-21T23:39:09.940Z,99.90
2023-02-21T23:41:41.153Z,99.90
2023-02-21T23:44:13.287Z,99.90
2023-02-21T23:46:42.616Z,99.90
2023-02-21T23:49:15.713Z,99.90
2023-02-21T23:51:44.927Z,99.90
2023-02-21T23:54:13.715Z,99.90
2023-02-21T23:56:40.698Z,99.90
2023-02-21T23:59:07.912Z,99.90
